sensor_id;sensor_type;location;lat;lon;timestamp;P1;durP1;ratioP1;P2;durP2;ratioP2
19151;SDS011;9708;53.114;9.388;2022-08-03T00:01:23;9.32;;;7.82;;
19151;SDS011;9708;53.114;9.388;2022-08-03T00:03:50;8.65;;;7.75;;
19151;SDS011;9708;53.114;9.388;2022-08-03T00:06:17;8.63;;;7.80;;
19151;SDS011;9708;53.114;9.388;2022-08-03T00:08:45;8.48;;;7.60;;
19151;SDS011;9708;53.114;9.388;2022-08-03T00:11:12;9.10;;;7.80;;
19151;SDS011;9708;53.114;9.388;2022-08-03T00:13:39;9.85;;;8.85;;
19151;SDS011;9708;53.114;9.388;2022-08-03T00:16:06;12.35;;;8.30;;
19151;SDS011;9708;53.114;9.388;2022-08-03T00:18:32;9.98;;;8.13;;
19151;SDS011;9708;53.114;9.388;2022-08-03T00:20:59;9.73;;;8.27;;
19151;SDS011;9708;53.114;9.388;2022-08-03T00:23:26;10.20;;;8.60;;
19151;SDS011;9708;53.114;9.388;2022-08-03T00:25:55;10.40;;;9.20;;
19151;SDS011;9708;53.114;9.388;2022-08-03T00:28:22;9.32;;;8.32;;
19151;SDS011;9708;53.114;9.388;2022-08-03T00:30:49;9.35;;;7.68;;
19151;SDS011;9708;53.114;9.388;2022-08-03T00:33:16;10.23;;;9.07;;
19151;SDS011;9708;53.114;9.388;2022-08-03T00:35:43;10.00;;;8.98;;
19151;SDS011;9708;53.114;9.388;2022-08-03T00:38:10;10.68;;;9.07;;
19151;SDS011;9708;53.114;9.388;2022-08-03T00:40:36;9.68;;;8.68;;
19151;SDS011;9708;53.114;9.388;2022-08-03T00:43:05;10.82;;;9.45;;
19151;SDS011;9708;53.114;9.388;2022-08-03T00:45:34;12.10;;;9.27;;
19151;SDS011;9708;53.114;9.388;2022-08-03T00:48:03;10.13;;;8.98;;
19151;SDS011;9708;53.114;9.388;2022-08-03T00:50:32;9.98;;;8.98;;
19151;SDS011;9708;53.114;9.388;2022-08-03T00:53:01;10.30;;;9.20;;
19151;SDS011;9708;53.114;9.388;2022-08-03T00:55:29;10.23;;;9.13;;
19151;SDS011;9708;53.114;9.388;2022-08-03T00:57:56;10.43;;;9.30;;
19151;SDS011;9708;53.114;9.388;2022-08-03T01:00:26;11.50;;;8.90;;
19151;SDS011;9708;53.114;9.388;2022-08-03T01:02:53;11.45;;;9.00;;
19151;SDS011;9708;53.114;9.388;2022-08-03T01:05:20;11.05;;;9.40;;
19151;SDS011;9708;53.114;9.388;2022-08-03T01:07:50;11.05;;;9.95;;
19151;SDS011;9708;53.114;9.388;2022-08-03T01:10:27;13.23;;;10.18;;
19151;SDS011;9708;53.114;9.388;2022-08-03T01:13:02;11.68;;;9.45;;
19151;SDS011;9708;53.114;9.388;2022-08-03T01:15:37;11.35;;;10.25;;
19151;SDS011;9708;53.114;9.388;2022-08-03T01:18:12;10.75;;;9.65;;
19151;SDS011;9708;53.114;9.388;2022-08-03T01:20:44;10.73;;;9.63;;
19151;SDS011;9708;53.114;9.388;2022-08-03T01:23:23;12.68;;;9.65;;
19151;SDS011;9708;53.114;9.388;2022-08-03T01:26:12;11.60;;;10.18;;
19151;SDS011;9708;53.114;9.388;2022-08-03T01:29:07;12.63;;;10.23;;
19151;SDS011;9708;53.114;9.388;2022-08-03T01:31:50;11.15;;;10.05;;
19151;SDS011;9708;53.114;9.388;2022-08-03T01:34:23;11.10;;;9.20;;
19151;SDS011;9708;53.114;9.388;2022-08-03T01:36:55;11.88;;;10.68;;
19151;SDS011;9708;53.114;9.388;2022-08-03T01:39:24;12.52;;;10.13;;
19151;SDS011;9708;53.114;9.388;2022-08-03T01:41:54;10.32;;;9.20;;
19151;SDS011;9708;53.114;9.388;2022-08-03T01:44:23;11.88;;;10.65;;
19151;SDS011;9708;53.114;9.388;2022-08-03T01:46:54;11.63;;;10.05;;
19151;SDS011;9708;53.114;9.388;2022-08-03T01:49:24;10.65;;;9.57;;
19151;SDS011;9708;53.114;9.388;2022-08-03T01:51:53;14.40;;;10.57;;
19151;SDS011;9708;53.114;9.388;2022-08-03T01:54:21;11.15;;;9.68;;
19151;SDS011;9708;53.114;9.388;2022-08-03T01:56:50;10.45;;;9.35;;
19151;SDS011;9708;53.114;9.388;2022-08-03T01:59:19;11.95;;;10.70;;
19151;SDS011;9708;53.114;9.388;2022-08-03T02:01:47;11.75;;;9.90;;
19151;SDS011;9708;53.114;9.388;2022-08-03T02:04:17;11.07;;;9.95;;
19151;SDS011;9708;53.114;9.388;2022-08-03T02:06:44;12.02;;;9.88;;
19151;SDS011;9708;53.114;9.388;2022-08-03T02:09:13;12.05;;;10.20;;
19151;SDS011;9708;53.114;9.388;2022-08-03T02:11:42;11.52;;;9.85;;
19151;SDS011;9708;53.114;9.388;2022-08-03T02:14:11;12.40;;;10.45;;
19151;SDS011;9708;53.114;9.388;2022-08-03T02:16:40;11.20;;;9.90;;
19151;SDS011;9708;53.114;9.388;2022-08-03T02:19:08;11.07;;;9.98;;
19151;SDS011;9708;53.114;9.388;2022-08-03T02:21:38;11.20;;;10.00;;
19151;SDS011;9708;53.114;9.388;2022-08-03T02:24:06;10.70;;;9.70;;
19151;SDS011;9708;53.114;9.388;2022-08-03T02:26:33;11.48;;;9.40;;
19151;SDS011;9708;53.114;9.388;2022-08-03T02:29:04;10.77;;;9.75;;
19151;SDS011;9708;53.114;9.388;2022-08-03T02:31:37;11.50;;;9.90;;
19151;SDS011;9708;53.114;9.388;2022-08-03T02:34:05;10.52;;;9.43;;
19151;SDS011;9708;53.114;9.388;2022-08-03T02:36:43;10.52;;;9.52;;
19151;SDS011;9708;53.114;9.388;2022-08-03T02:39:14;13.35;;;10.45;;
19151;SDS011;9708;53.114;9.388;2022-08-03T02:41:46;10.85;;;9.68;;
19151;SDS011;9708;53.114;9.388;2022-08-03T02:44:16;11.88;;;10.32;;
19151;SDS011;9708;53.114;9.388;2022-08-03T02:46:46;11.88;;;10.70;;
19151;SDS011;9708;53.114;9.388;2022-08-03T02:49:18;11.90;;;10.65;;
19151;SDS011;9708;53.114;9.388;2022-08-03T02:51:47;11.85;;;9.48;;
19151;SDS011;9708;53.114;9.388;2022-08-03T02:54:17;11.13;;;10.02;;
19151;SDS011;9708;53.114;9.388;2022-08-03T02:56:45;10.75;;;9.60;;
19151;SDS011;9708;53.114;9.388;2022-08-03T02:59:13;11.43;;;10.23;;
19151;SDS011;9708;53.114;9.388;2022-08-03T03:01:42;12.15;;;10.73;;
19151;SDS011;9708;53.114;9.388;2022-08-03T03:04:10;11.20;;;9.73;;
19151;SDS011;9708;53.114;9.388;2022-08-03T03:06:38;11.65;;;10.45;;
19151;SDS011;9708;53.114;9.388;2022-08-03T03:09:07;12.02;;;10.73;;
19151;SDS011;9708;53.114;9.388;2022-08-03T03:11:35;11.40;;;10.25;;
19151;SDS011;9708;53.114;9.388;2022-08-03T03:14:03;12.93;;;10.70;;
19151;SDS011;9708;53.114;9.388;2022-08-03T03:16:32;12.60;;;10.57;;
19151;SDS011;9708;53.114;9.388;2022-08-03T03:18:59;12.35;;;10.65;;
19151;SDS011;9708;53.114;9.388;2022-08-03T03:21:27;12.85;;;10.40;;
19151;SDS011;9708;53.114;9.388;2022-08-03T03:23:55;12.85;;;11.20;;
19151;SDS011;9708;53.114;9.388;2022-08-03T03:26:25;11.70;;;10.50;;
19151;SDS011;9708;53.114;9.388;2022-08-03T03:28:53;11.27;;;9.82;;
19151;SDS011;9708;53.114;9.388;2022-08-03T03:31:20;11.68;;;10.48;;
19151;SDS011;9708;53.114;9.388;2022-08-03T03:33:47;13.98;;;10.50;;
19151;SDS011;9708;53.114;9.388;2022-08-03T03:36:15;12.25;;;10.18;;
19151;SDS011;9708;53.114;9.388;2022-08-03T03:38:42;11.32;;;10.25;;
19151;SDS011;9708;53.114;9.388;2022-08-03T03:41:09;12.02;;;10.82;;
19151;SDS011;9708;53.114;9.388;2022-08-03T03:43:37;11.20;;;10.10;;
19151;SDS011;9708;53.114;9.388;2022-08-03T03:46:04;14.05;;;10.70;;
19151;SDS011;9708;53.114;9.388;2022-08-03T03:48:31;13.70;;;9.95;;
19151;SDS011;9708;53.114;9.388;2022-08-03T03:50:59;12.35;;;10.25;;
19151;SDS011;9708;53.114;9.388;2022-08-03T03:53:26;12.27;;;9.85;;
19151;SDS011;9708;53.114;9.388;2022-08-03T03:55:53;12.23;;;10.75;;
19151;SDS011;9708;53.114;9.388;2022-08-03T03:58:20;12.90;;;11.55;;
19151;SDS011;9708;53.114;9.388;2022-08-03T04:00:48;14.20;;;11.35;;
19151;SDS011;9708;53.114;9.388;2022-08-03T04:03:17;13.15;;;10.63;;
19151;SDS011;9708;53.114;9.388;2022-08-03T04:05:45;11.48;;;10.23;;
19151;SDS011;9708;53.114;9.388;2022-08-03T04:08:29;12.23;;;10.93;;
19151;SDS011;9708;53.114;9.388;2022-08-03T04:11:13;12.65;;;10.70;;
19151;SDS011;9708;53.114;9.388;2022-08-03T04:13:45;13.07;;;11.68;;
19151;SDS011;9708;53.114;9.388;2022-08-03T04:16:17;13.50;;;11.43;;
19151;SDS011;9708;53.114;9.388;2022-08-03T04:18:47;13.05;;;10.95;;
19151;SDS011;9708;53.114;9.388;2022-08-03T04:21:20;12.50;;;11.20;;
19151;SDS011;9708;53.114;9.388;2022-08-03T04:23:50;14.18;;;11.20;;
19151;SDS011;9708;53.114;9.388;2022-08-03T04:26:21;11.85;;;10.13;;
19151;SDS011;9708;53.114;9.388;2022-08-03T04:28:49;15.68;;;10.30;;
19151;SDS011;9708;53.114;9.388;2022-08-03T04:31:19;11.88;;;10.13;;
19151;SDS011;9708;53.114;9.388;2022-08-03T04:33:48;11.90;;;10.48;;
19151;SDS011;9708;53.114;9.388;2022-08-03T04:36:18;14.32;;;11.25;;
19151;SDS011;9708;53.114;9.388;2022-08-03T04:38:52;19.58;;;12.05;;
19151;SDS011;9708;53.114;9.388;2022-08-03T04:41:22;17.23;;;11.95;;
19151;SDS011;9708;53.114;9.388;2022-08-03T04:43:51;12.95;;;10.70;;
19151;SDS011;9708;53.114;9.388;2022-08-03T04:46:22;13.95;;;10.80;;
19151;SDS011;9708;53.114;9.388;2022-08-03T04:48:52;11.43;;;10.15;;
19151;SDS011;9708;53.114;9.388;2022-08-03T04:51:19;11.90;;;9.85;;
19151;SDS011;9708;53.114;9.388;2022-08-03T04:53:46;12.30;;;9.77;;
19151;SDS011;9708;53.114;9.388;2022-08-03T04:56:13;12.75;;;10.65;;
19151;SDS011;9708;53.114;9.388;2022-08-03T04:58:40;14.07;;;10.32;;
19151;SDS011;9708;53.114;9.388;2022-08-03T05:01:07;13.38;;;10.35;;
19151;SDS011;9708;53.114;9.388;2022-08-03T05:03:35;13.50;;;10.73;;
19151;SDS011;9708;53.114;9.388;2022-08-03T05:06:03;10.85;;;9.63;;
19151;SDS011;9708;53.114;9.388;2022-08-03T05:08:31;13.32;;;9.20;;
19151;SDS011;9708;53.114;9.388;2022-08-03T05:10:58;10.45;;;8.55;;
19151;SDS011;9708;53.114;9.388;2022-08-03T05:13:28;11.77;;;7.97;;
19151;SDS011;9708;53.114;9.388;2022-08-03T05:15:55;10.02;;;7.63;;
19151;SDS011;9708;53.114;9.388;2022-08-03T05:18:21;9.65;;;7.20;;
19151;SDS011;9708;53.114;9.388;2022-08-03T05:20:50;13.65;;;7.13;;
19151;SDS011;9708;53.114;9.388;2022-08-03T05:23:16;7.35;;;6.65;;
19151;SDS011;9708;53.114;9.388;2022-08-03T05:25:44;7.82;;;6.95;;
19151;SDS011;9708;53.114;9.388;2022-08-03T05:28:10;6.63;;;6.13;;
19151;SDS011;9708;53.114;9.388;2022-08-03T05:30:37;7.55;;;6.18;;
19151;SDS011;9708;53.114;9.388;2022-08-03T05:33:04;6.82;;;5.97;;
19151;SDS011;9708;53.114;9.388;2022-08-03T05:35:31;6.55;;;5.95;;
19151;SDS011;9708;53.114;9.388;2022-08-03T05:38:00;6.43;;;5.70;;
19151;SDS011;9708;53.114;9.388;2022-08-03T05:40:27;8.98;;;5.43;;
19151;SDS011;9708;53.114;9.388;2022-08-03T05:42:54;5.93;;;4.82;;
19151;SDS011;9708;53.114;9.388;2022-08-03T05:45:22;5.65;;;4.93;;
19151;SDS011;9708;53.114;9.388;2022-08-03T05:47:49;4.80;;;4.40;;
19151;SDS011;9708;53.114;9.388;2022-08-03T05:53:10;6.88;;;4.90;;
19151;SDS011;9708;53.114;9.388;2022-08-03T05:55:37;5.63;;;4.85;;
19151;SDS011;9708;53.114;9.388;2022-08-03T05:58:03;5.15;;;4.55;;
19151;SDS011;9708;53.114;9.388;2022-08-03T06:00:30;4.80;;;4.38;;
19151;SDS011;9708;53.114;9.388;2022-08-03T06:02:57;4.72;;;4.32;;
19151;SDS011;9708;53.114;9.388;2022-08-03T06:05:24;4.68;;;4.28;;
19151;SDS011;9708;53.114;9.388;2022-08-03T06:07:52;5.15;;;4.65;;
19151;SDS011;9708;53.114;9.388;2022-08-03T06:10:21;4.70;;;4.20;;
19151;SDS011;9708;53.114;9.388;2022-08-03T06:12:47;4.28;;;3.42;;
19151;SDS011;9708;53.114;9.388;2022-08-03T06:15:15;4.30;;;3.90;;
19151;SDS011;9708;53.114;9.388;2022-08-03T06:17:45;4.05;;;3.70;;
19151;SDS011;9708;53.114;9.388;2022-08-03T06:20:14;3.95;;;3.53;;
19151;SDS011;9708;53.114;9.388;2022-08-03T06:22:42;4.10;;;3.28;;
19151;SDS011;9708;53.114;9.388;2022-08-03T06:25:09;4.25;;;3.85;;
19151;SDS011;9708;53.114;9.388;2022-08-03T06:27:37;4.75;;;3.67;;
19151;SDS011;9708;53.114;9.388;2022-08-03T06:30:05;4.47;;;3.10;;
19151;SDS011;9708;53.114;9.388;2022-08-03T06:32:34;4.13;;;3.38;;
19151;SDS011;9708;53.114;9.388;2022-08-03T06:35:01;4.65;;;3.47;;
19151;SDS011;9708;53.114;9.388;2022-08-03T06:37:28;4.35;;;3.28;;
19151;SDS011;9708;53.114;9.388;2022-08-03T06:39:55;3.92;;;3.17;;
19151;SDS011;9708;53.114;9.388;2022-08-03T06:42:22;3.28;;;2.90;;
19151;SDS011;9708;53.114;9.388;2022-08-03T06:44:50;5.65;;;3.53;;
19151;SDS011;9708;53.114;9.388;2022-08-03T06:47:17;4.25;;;3.33;;
19151;SDS011;9708;53.114;9.388;2022-08-03T06:49:44;4.95;;;3.25;;
19151;SDS011;9708;53.114;9.388;2022-08-03T06:52:11;3.95;;;3.13;;
19151;SDS011;9708;53.114;9.388;2022-08-03T06:54:37;3.17;;;3.00;;
19151;SDS011;9708;53.114;9.388;2022-08-03T06:57:04;4.88;;;3.10;;
19151;SDS011;9708;53.114;9.388;2022-08-03T06:59:32;3.38;;;3.00;;
19151;SDS011;9708;53.114;9.388;2022-08-03T07:02:00;4.07;;;2.60;;
19151;SDS011;9708;53.114;9.388;2022-08-03T07:04:27;3.05;;;2.65;;
19151;SDS011;9708;53.114;9.388;2022-08-03T07:06:54;5.38;;;2.65;;
19151;SDS011;9708;53.114;9.388;2022-08-03T07:09:22;4.22;;;2.70;;
19151;SDS011;9708;53.114;9.388;2022-08-03T07:11:50;3.00;;;2.70;;
19151;SDS011;9708;53.114;9.388;2022-08-03T07:14:17;3.60;;;2.53;;
19151;SDS011;9708;53.114;9.388;2022-08-03T07:16:44;3.13;;;2.78;;
19151;SDS011;9708;53.114;9.388;2022-08-03T07:19:12;4.22;;;2.67;;
19151;SDS011;9708;53.114;9.388;2022-08-03T07:21:39;3.10;;;2.60;;
19151;SDS011;9708;53.114;9.388;2022-08-03T07:24:06;3.50;;;2.45;;
19151;SDS011;9708;53.114;9.388;2022-08-03T07:26:33;2.97;;;2.08;;
19151;SDS011;9708;53.114;9.388;2022-08-03T07:29:00;3.90;;;2.58;;
19151;SDS011;9708;53.114;9.388;2022-08-03T07:31:26;3.50;;;2.50;;
19151;SDS011;9708;53.114;9.388;2022-08-03T07:33:53;3.33;;;2.90;;
19151;SDS011;9708;53.114;9.388;2022-08-03T07:36:21;3.92;;;2.58;;
19151;SDS011;9708;53.114;9.388;2022-08-03T07:38:49;2.78;;;2.50;;
19151;SDS011;9708;53.114;9.388;2022-08-03T07:41:16;4.68;;;2.53;;
19151;SDS011;9708;53.114;9.388;2022-08-03T07:43:43;5.03;;;2.50;;
19151;SDS011;9708;53.114;9.388;2022-08-03T07:46:10;3.63;;;2.85;;
19151;SDS011;9708;53.114;9.388;2022-08-03T07:48:37;4.78;;;2.70;;
19151;SDS011;9708;53.114;9.388;2022-08-03T07:51:04;3.35;;;2.45;;
19151;SDS011;9708;53.114;9.388;2022-08-03T07:53:32;2.60;;;2.40;;
19151;SDS011;9708;53.114;9.388;2022-08-03T07:55:59;6.13;;;2.50;;
19151;SDS011;9708;53.114;9.388;2022-08-03T07:58:25;5.10;;;2.85;;
19151;SDS011;9708;53.114;9.388;2022-08-03T08:00:52;3.45;;;2.63;;
19151;SDS011;9708;53.114;9.388;2022-08-03T08:03:19;2.75;;;2.55;;
19151;SDS011;9708;53.114;9.388;2022-08-03T08:05:46;4.00;;;2.50;;
19151;SDS011;9708;53.114;9.388;2022-08-03T08:08:13;3.45;;;2.50;;
19151;SDS011;9708;53.114;9.388;2022-08-03T08:10:41;4.25;;;2.53;;
19151;SDS011;9708;53.114;9.388;2022-08-03T08:13:09;2.85;;;2.40;;
19151;SDS011;9708;53.114;9.388;2022-08-03T08:15:36;6.38;;;2.47;;
19151;SDS011;9708;53.114;9.388;2022-08-03T08:18:02;2.35;;;2.05;;
19151;SDS011;9708;53.114;9.388;2022-08-03T08:20:30;3.17;;;2.17;;
19151;SDS011;9708;53.114;9.388;2022-08-03T08:22:59;2.92;;;2.40;;
19151;SDS011;9708;53.114;9.388;2022-08-03T08:28:20;11.10;;;2.50;;
19151;SDS011;9708;53.114;9.388;2022-08-03T08:30:47;3.28;;;2.20;;
19151;SDS011;9708;53.114;9.388;2022-08-03T08:33:15;4.93;;;2.50;;
19151;SDS011;9708;53.114;9.388;2022-08-03T08:35:41;4.72;;;2.45;;
19151;SDS011;9708;53.114;9.388;2022-08-03T08:38:08;4.85;;;2.10;;
19151;SDS011;9708;53.114;9.388;2022-08-03T08:40:35;2.78;;;2.08;;
19151;SDS011;9708;53.114;9.388;2022-08-03T08:43:03;4.40;;;2.17;;
19151;SDS011;9708;53.114;9.388;2022-08-03T08:45:30;3.38;;;1.90;;
19151;SDS011;9708;53.114;9.388;2022-08-03T08:47:58;6.82;;;2.15;;
19151;SDS011;9708;53.114;9.388;2022-08-03T08:50:28;4.07;;;2.33;;
19151;SDS011;9708;53.114;9.388;2022-08-03T08:52:55;4.60;;;2.00;;
19151;SDS011;9708;53.114;9.388;2022-08-03T08:55:27;2.17;;;1.80;;
19151;SDS011;9708;53.114;9.388;2022-08-03T08:57:55;6.00;;;2.50;;
19151;SDS011;9708;53.114;9.388;2022-08-03T09:00:25;3.17;;;2.30;;
19151;SDS011;9708;53.114;9.388;2022-08-03T09:02:52;4.25;;;2.00;;
19151;SDS011;9708;53.114;9.388;2022-08-03T09:05:19;3.30;;;2.20;;
19151;SDS011;9708;53.114;9.388;2022-08-03T09:07:46;6.03;;;1.92;;
19151;SDS011;9708;53.114;9.388;2022-08-03T09:10:14;5.18;;;1.90;;
19151;SDS011;9708;53.114;9.388;2022-08-03T09:12:45;4.70;;;1.77;;
19151;SDS011;9708;53.114;9.388;2022-08-03T09:15:17;2.45;;;1.92;;
19151;SDS011;9708;53.114;9.388;2022-08-03T09:17:49;3.03;;;1.88;;
19151;SDS011;9708;53.114;9.388;2022-08-03T09:20:18;4.68;;;2.00;;
19151;SDS011;9708;53.114;9.388;2022-08-03T09:22:55;3.08;;;2.08;;
19151;SDS011;9708;53.114;9.388;2022-08-03T09:25:27;3.75;;;2.20;;
19151;SDS011;9708;53.114;9.388;2022-08-03T09:28:02;2.90;;;2.00;;
19151;SDS011;9708;53.114;9.388;2022-08-03T09:30:32;4.15;;;1.80;;
19151;SDS011;9708;53.114;9.388;2022-08-03T09:33:01;5.90;;;1.90;;
19151;SDS011;9708;53.114;9.388;2022-08-03T09:35:29;2.58;;;1.60;;
19151;SDS011;9708;53.114;9.388;2022-08-03T09:38:09;4.78;;;2.28;;
19151;SDS011;9708;53.114;9.388;2022-08-03T09:40:37;4.20;;;1.88;;
19151;SDS011;9708;53.114;9.388;2022-08-03T09:43:04;3.15;;;1.70;;
19151;SDS011;9708;53.114;9.388;2022-08-03T09:45:32;2.88;;;1.80;;
19151;SDS011;9708;53.114;9.388;2022-08-03T09:48:11;2.38;;;1.80;;
19151;SDS011;9708;53.114;9.388;2022-08-03T09:50:48;2.75;;;1.80;;
19151;SDS011;9708;53.114;9.388;2022-08-03T09:53:16;4.18;;;2.00;;
19151;SDS011;9708;53.114;9.388;2022-08-03T09:55:53;2.60;;;1.67;;
19151;SDS011;9708;53.114;9.388;2022-08-03T09:58:21;2.88;;;2.00;;
19151;SDS011;9708;53.114;9.388;2022-08-03T10:00:52;2.13;;;1.40;;
19151;SDS011;9708;53.114;9.388;2022-08-03T10:03:25;4.40;;;1.83;;
19151;SDS011;9708;53.114;9.388;2022-08-03T10:05:53;4.28;;;2.08;;
19151;SDS011;9708;53.114;9.388;2022-08-03T10:08:21;3.92;;;1.70;;
19151;SDS011;9708;53.114;9.388;2022-08-03T10:10:49;3.53;;;1.88;;
19151;SDS011;9708;53.114;9.388;2022-08-03T10:13:18;3.65;;;1.73;;
19151;SDS011;9708;53.114;9.388;2022-08-03T10:15:46;2.58;;;1.42;;
19151;SDS011;9708;53.114;9.388;2022-08-03T10:18:13;5.03;;;2.17;;
19151;SDS011;9708;53.114;9.388;2022-08-03T10:20:42;3.35;;;1.90;;
19151;SDS011;9708;53.114;9.388;2022-08-03T10:23:11;3.35;;;1.55;;
19151;SDS011;9708;53.114;9.388;2022-08-03T10:25:41;7.18;;;2.38;;
19151;SDS011;9708;53.114;9.388;2022-08-03T10:28:12;5.63;;;1.95;;
19151;SDS011;9708;53.114;9.388;2022-08-03T10:30:43;5.35;;;2.00;;
19151;SDS011;9708;53.114;9.388;2022-08-03T10:33:16;4.20;;;1.92;;
19151;SDS011;9708;53.114;9.388;2022-08-03T10:35:46;6.03;;;2.60;;
19151;SDS011;9708;53.114;9.388;2022-08-03T10:38:18;7.68;;;2.28;;
19151;SDS011;9708;53.114;9.388;2022-08-03T10:40:49;4.35;;;2.45;;
19151;SDS011;9708;53.114;9.388;2022-08-03T10:43:19;6.68;;;2.10;;
19151;SDS011;9708;53.114;9.388;2022-08-03T10:45:47;2.50;;;1.70;;
19151;SDS011;9708;53.114;9.388;2022-08-03T10:48:15;2.85;;;1.88;;
19151;SDS011;9708;53.114;9.388;2022-08-03T10:50:42;4.10;;;2.00;;
19151;SDS011;9708;53.114;9.388;2022-08-03T10:53:11;3.25;;;1.83;;
19151;SDS011;9708;53.114;9.388;2022-08-03T10:55:38;3.47;;;1.95;;
19151;SDS011;9708;53.114;9.388;2022-08-03T10:58:45;5.18;;;1.80;;
19151;SDS011;9708;53.114;9.388;2022-08-03T11:01:13;2.97;;;1.70;;
19151;SDS011;9708;53.114;9.388;2022-08-03T11:06:42;6.03;;;1.90;;
19151;SDS011;9708;53.114;9.388;2022-08-03T11:09:15;2.08;;;1.70;;
19151;SDS011;9708;53.114;9.388;2022-08-03T11:11:43;2.40;;;1.90;;
19151;SDS011;9708;53.114;9.388;2022-08-03T11:14:12;2.65;;;1.67;;
19151;SDS011;9708;53.114;9.388;2022-08-03T11:16:41;3.30;;;1.80;;
19151;SDS011;9708;53.114;9.388;2022-08-03T11:19:11;4.88;;;1.80;;
19151;SDS011;9708;53.114;9.388;2022-08-03T11:21:57;3.53;;;2.00;;
19151;SDS011;9708;53.114;9.388;2022-08-03T11:27:24;7.05;;;1.85;;
19151;SDS011;9708;53.114;9.388;2022-08-03T11:29:56;4.65;;;1.63;;
19151;SDS011;9708;53.114;9.388;2022-08-03T11:35:17;4.25;;;1.92;;
19151;SDS011;9708;53.114;9.388;2022-08-03T11:38:04;4.05;;;1.58;;
19151;SDS011;9708;53.114;9.388;2022-08-03T11:40:45;1.92;;;1.70;;
19151;SDS011;9708;53.114;9.388;2022-08-03T11:46:11;4.53;;;2.03;;
19151;SDS011;9708;53.114;9.388;2022-08-03T11:48:43;3.35;;;1.65;;
19151;SDS011;9708;53.114;9.388;2022-08-03T11:51:18;3.92;;;1.85;;
19151;SDS011;9708;53.114;9.388;2022-08-03T11:53:46;3.63;;;1.80;;
19151;SDS011;9708;53.114;9.388;2022-08-03T11:56:17;6.03;;;1.60;;
19151;SDS011;9708;53.114;9.388;2022-08-03T11:58:47;3.55;;;1.73;;
19151;SDS011;9708;53.114;9.388;2022-08-03T12:01:17;7.72;;;2.40;;
19151;SDS011;9708;53.114;9.388;2022-08-03T12:03:44;3.03;;;1.67;;
19151;SDS011;9708;53.114;9.388;2022-08-03T12:06:12;5.43;;;1.95;;
19151;SDS011;9708;53.114;9.388;2022-08-03T12:08:42;4.15;;;1.70;;
19151;SDS011;9708;53.114;9.388;2022-08-03T12:11:11;2.97;;;1.95;;
19151;SDS011;9708;53.114;9.388;2022-08-03T12:13:41;6.15;;;2.20;;
19151;SDS011;9708;53.114;9.388;2022-08-03T12:16:09;3.88;;;1.90;;
19151;SDS011;9708;53.114;9.388;2022-08-03T12:18:36;3.13;;;1.80;;
19151;SDS011;9708;53.114;9.388;2022-08-03T12:21:04;3.45;;;1.95;;
19151;SDS011;9708;53.114;9.388;2022-08-03T12:23:32;4.30;;;1.80;;
19151;SDS011;9708;53.114;9.388;2022-08-03T12:26:03;2.72;;;1.67;;
19151;SDS011;9708;53.114;9.388;2022-08-03T12:28:31;6.43;;;2.08;;
19151;SDS011;9708;53.114;9.388;2022-08-03T12:31:01;2.65;;;1.35;;
19151;SDS011;9708;53.114;9.388;2022-08-03T12:33:30;5.43;;;2.00;;
19151;SDS011;9708;53.114;9.388;2022-08-03T12:36:02;3.20;;;1.63;;
19151;SDS011;9708;53.114;9.388;2022-08-03T12:38:31;3.50;;;2.17;;
19151;SDS011;9708;53.114;9.388;2022-08-03T12:41:00;4.68;;;1.80;;
19151;SDS011;9708;53.114;9.388;2022-08-03T12:43:29;3.15;;;1.80;;
19151;SDS011;9708;53.114;9.388;2022-08-03T12:46:13;4.53;;;1.95;;
19151;SDS011;9708;53.114;9.388;2022-08-03T12:49:00;3.13;;;1.73;;
19151;SDS011;9708;53.114;9.388;2022-08-03T12:51:31;6.35;;;2.40;;
19151;SDS011;9708;53.114;9.388;2022-08-03T12:53:59;4.05;;;1.90;;
19151;SDS011;9708;53.114;9.388;2022-08-03T12:56:26;4.00;;;1.83;;
19151;SDS011;9708;53.114;9.388;2022-08-03T12:58:53;4.43;;;1.60;;
19151;SDS011;9708;53.114;9.388;2022-08-03T13:01:21;4.78;;;1.40;;
19151;SDS011;9708;53.114;9.388;2022-08-03T13:03:49;2.10;;;1.58;;
19151;SDS011;9708;53.114;9.388;2022-08-03T13:06:19;5.72;;;1.90;;
19151;SDS011;9708;53.114;9.388;2022-08-03T13:08:47;3.83;;;1.63;;
19151;SDS011;9708;53.114;9.388;2022-08-03T13:11:18;2.50;;;1.60;;
19151;SDS011;9708;53.114;9.388;2022-08-03T13:13:46;4.45;;;1.75;;
19151;SDS011;9708;53.114;9.388;2022-08-03T13:16:13;4.57;;;2.20;;
19151;SDS011;9708;53.114;9.388;2022-08-03T13:18:42;6.40;;;2.05;;
19151;SDS011;9708;53.114;9.388;2022-08-03T13:21:11;8.50;;;2.03;;
19151;SDS011;9708;53.114;9.388;2022-08-03T13:23:38;6.28;;;2.13;;
19151;SDS011;9708;53.114;9.388;2022-08-03T13:26:05;5.22;;;2.10;;
19151;SDS011;9708;53.114;9.388;2022-08-03T13:28:32;4.45;;;1.60;;
19151;SDS011;9708;53.114;9.388;2022-08-03T13:30:58;2.78;;;1.55;;
19151;SDS011;9708;53.114;9.388;2022-08-03T13:33:26;11.63;;;2.92;;
19151;SDS011;9708;53.114;9.388;2022-08-03T13:35:54;8.85;;;1.98;;
19151;SDS011;9708;53.114;9.388;2022-08-03T13:38:22;7.82;;;1.95;;
19151;SDS011;9708;53.114;9.388;2022-08-03T13:40:49;7.50;;;2.00;;
19151;SDS011;9708;53.114;9.388;2022-08-03T13:43:17;3.60;;;1.60;;
19151;SDS011;9708;53.114;9.388;2022-08-03T13:45:44;3.53;;;1.60;;
19151;SDS011;9708;53.114;9.388;2022-08-03T13:48:11;4.38;;;1.50;;
19151;SDS011;9708;53.114;9.388;2022-08-03T13:50:37;4.13;;;1.80;;
19151;SDS011;9708;53.114;9.388;2022-08-03T13:53:05;4.93;;;1.88;;
19151;SDS011;9708;53.114;9.388;2022-08-03T13:55:32;5.55;;;1.73;;
19151;SDS011;9708;53.114;9.388;2022-08-03T13:57:59;3.92;;;1.40;;
19151;SDS011;9708;53.114;9.388;2022-08-03T14:00:26;6.40;;;1.98;;
19151;SDS011;9708;53.114;9.388;2022-08-03T14:02:53;3.80;;;1.58;;
19151;SDS011;9708;53.114;9.388;2022-08-03T14:05:20;4.22;;;2.05;;
19151;SDS011;9708;53.114;9.388;2022-08-03T14:07:47;2.53;;;1.52;;
19151;SDS011;9708;53.114;9.388;2022-08-03T14:10:15;4.97;;;1.73;;
19151;SDS011;9708;53.114;9.388;2022-08-03T14:12:43;4.53;;;1.92;;
19151;SDS011;9708;53.114;9.388;2022-08-03T14:15:10;3.13;;;1.90;;
19151;SDS011;9708;53.114;9.388;2022-08-03T14:17:37;4.55;;;1.90;;
19151;SDS011;9708;53.114;9.388;2022-08-03T14:20:05;4.03;;;1.80;;
19151;SDS011;9708;53.114;9.388;2022-08-03T14:22:33;5.82;;;1.92;;
19151;SDS011;9708;53.114;9.388;2022-08-03T14:25:00;4.55;;;1.85;;
19151;SDS011;9708;53.114;9.388;2022-08-03T14:27:28;5.85;;;2.03;;
19151;SDS011;9708;53.114;9.388;2022-08-03T14:29:55;7.20;;;1.80;;
19151;SDS011;9708;53.114;9.388;2022-08-03T14:32:24;5.00;;;2.00;;
19151;SDS011;9708;53.114;9.388;2022-08-03T14:34:51;5.28;;;2.10;;
19151;SDS011;9708;53.114;9.388;2022-08-03T14:37:18;4.13;;;1.60;;
19151;SDS011;9708;53.114;9.388;2022-08-03T14:39:45;5.40;;;2.10;;
19151;SDS011;9708;53.114;9.388;2022-08-03T14:42:12;5.85;;;1.80;;
19151;SDS011;9708;53.114;9.388;2022-08-03T14:44:40;4.82;;;1.90;;
19151;SDS011;9708;53.114;9.388;2022-08-03T14:47:07;5.22;;;1.98;;
19151;SDS011;9708;53.114;9.388;2022-08-03T14:49:34;6.07;;;2.22;;
19151;SDS011;9708;53.114;9.388;2022-08-03T14:52:02;5.68;;;1.92;;
19151;SDS011;9708;53.114;9.388;2022-08-03T14:54:29;5.32;;;2.38;;
19151;SDS011;9708;53.114;9.388;2022-08-03T14:56:56;5.65;;;2.38;;
19151;SDS011;9708;53.114;9.388;2022-08-03T14:59:24;3.40;;;1.70;;
19151;SDS011;9708;53.114;9.388;2022-08-03T15:01:53;6.07;;;1.85;;
19151;SDS011;9708;53.114;9.388;2022-08-03T15:04:20;3.55;;;2.15;;
19151;SDS011;9708;53.114;9.388;2022-08-03T15:06:47;3.30;;;1.70;;
19151;SDS011;9708;53.114;9.388;2022-08-03T15:09:14;5.15;;;2.00;;
19151;SDS011;9708;53.114;9.388;2022-08-03T15:11:41;4.53;;;2.78;;
19151;SDS011;9708;53.114;9.388;2022-08-03T15:14:08;8.27;;;2.15;;
19151;SDS011;9708;53.114;9.388;2022-08-03T15:16:35;4.88;;;1.98;;
19151;SDS011;9708;53.114;9.388;2022-08-03T15:19:03;6.15;;;1.95;;
19151;SDS011;9708;53.114;9.388;2022-08-03T15:21:31;4.57;;;2.08;;
19151;SDS011;9708;53.114;9.388;2022-08-03T15:23:57;5.30;;;2.00;;